Jasper, NY (14855)

3:45 PM EDT on July 06, 2015 (GMT -0400)
Sylvester | | Change Station
CLOSE
Current Station
Personal Weather Station
Location: Westfield, PA
Elevation: 1811 ft
Nearby Weather Stations

Elev 1811 ft 41.96 °N, 77.56 °W | Updated 3 minutes ago

Mostly Cloudy
Mostly Cloudy
74.3 °F
Feels Like 72 °F
N
2.0
Wind Variable Wind from SSW
Gusts 2.0 mph

Today
High -- | Low -- °F
--% Chance of Precip.
Yesterday
High -- | Low -- °F
Precip. -- in
5:40 AM 8:48 PM
Waning Gibbous, 73% visible
Pressure 30.10 in
Visibility 10.0 miles
Clouds Few 2400 ft
Heat Index 72 °F
Dew Point 72 °F
Humidity 93%
Rainfall 0.00 in
Snow Depth Not available.
UV 0.0 out of 12
Pollen 4.40 out of 12
Air Quality Not available.
Flu Activity Not available.
METAR KELZ 061856Z AUTO 17008KT 10SM FEW024 25/19 A3014 RMK AO2 RAE1759 SLP193 P0000 T02500189

More Conditions Fewer Conditions

Pressure 30.10 in
Visibility 10.0 miles
Clouds Few 2400 ft
Heat Index 72 °F
Dew Point 72 °F
Humidity 93%
Rainfall 0.00 in
Snow Depth Not available.
UV 0.0 out of 12
Pollen 4.40 out of 12
Air Quality Not available.
Flu Activity Not available.
METAR KELZ 061856Z AUTO 17008KT 10SM FEW024 25/19 A3014 RMK AO2 RAE1759 SLP193 P0000 T02500189

More Conditions Fewer Conditions

Nowcast | as of 2:06 PM EDT on July 6, 2015

Scattered showers and isolated thunderstorms will move across the area through 5 PM. General rainfall rates will be .10-.20 inches an hour. A thunderstorm could produce .50 to 1.00 inches in an hour.

×

10-Day Weather Forecast

×

Almanac

Astronomy

Jul. 06, 2015 Rise Set
Actual Time
Civil Twilight
Nautical Twilight
Astronomical Twilight
Moon
Length of Visible Light
Length of Day
Tomorrow will be .
, % of the Moon is Illuminated

Today's Extremes

State Highs State Lows

Community

WunderPhotos

Upload Photos

1,835,625 photos uploaded!

WunderBlogs® & News

Nearby

Air Quality

  Air Quality AQ Index Pollutant
Not available.

Snow Depth

Station Depth Elevation

Earthquake Activity

City Distance Mag. Time & Date
Minimum magnitude displayed is 2.5.

Coastal Water Temperatures

Place Temperature

Stations

Nearby Weather Stations

Station Location Temp. Windchill Dew Point Humidity Wind Precip. Elev Updated Type